Aviation Digital Data Service (ADDS)

Output produced by METARs form (1826 UTC 16 August 2018)
found at http://www.aviationweather.gov/adds/metars/
 
FABM 161428Z 25004KT 9999 -TSRA FEW040TCU FEW045CB 22/03 Q1023
FABL 161800Z VRB02KT CAVOK 10/M06 Q1021 NOSIG
TAF FABL 161600Z 1618/1718 VRB03KT CAVOK 
     BECMG 1709/1711 21013KT TX17/1713Z TN00/1705Z
       
FACT 161800Z 32007KT 9999 -RA SCT010 BKN035 12/10 Q1020 NOSIG
TAF FACT 161600Z 1618/1724 22010KT 9999 BKN030 
     TEMPO 1618/1620 4000 RA BKN010 
     FM170600 16008KT 9999 SCT030 TX15/1712Z TN08/1706Z
       
FAEL 161800Z VRB02KT 8000 3700 NSC 14/13 Q1013
TAF FAEL 160900Z 1610/1619 05015KT CAVOK 
     TEMPO 1610/1615 06015G25KT 
     BECMG 1616/1618 02005KT 
     BECMG 1618/1619 23020G30KT SCT015 TX23/1612Z TN19/1618Z
       
FAGG 161800Z 30003KT 240V310 CAVOK 10/08 Q1015
TAF FAGG 161600Z 1618/1718 21005KT 9999 SCT030 
     FM162000 24015KT 9999 FEW010 BKN020 
     TEMPO 1620/1706 4000 RA BKN008 
     FM171200 20007KT 9999 SCT030 
     BECMG 1716/1718 VRB03KT TX14/1712Z TN06/1706Z
       
FAHS 161800Z AUTO 16003KT //// 24/12 Q1019
FAKM 161800Z 25006KT CAVOK 13/M17 Q1020
FALW 161800Z AUTO 28002KT //// // ////// 12/10 Q1020
FALA 161800Z 20002KT CAVOK 22/03 Q1024 NOSIG
TAF FALA 161600Z 1618/1718 VRB03KT CAVOK 
     BECMG 1707/1709 34012KT 
     BECMG 1716/1718 19011KT TX28/1713Z TN11/1704Z
       
FAMM 161800Z 01006KT CAVOK 18/M00 Q1022 NOSIG
FAOB 161800Z AUTO 33013KT //// // ////// 13/08 Q1017
TAF FAPM 160900Z 1610/1621 06010KT 9999 BKN020 
     BECMG 1613/1615 SCT030 
     BECMG 1616/1618 VRB03KT CAVOK TX24/1613Z TN15/1618Z
       
FAPN 161500Z AUTO 32005KT //// // ////// ///// Q1020
FAPE 161800Z 24014KT CAVOK 14/11 Q1014 NOSIG
TAF FAPE 161600Z 1618/1718 24015KT CAVOK 
     BECMG 1700/1702 24025G35KT 9999 BKN025 
     TEMPO 1700/1712 5000 -SHRA BKN013 
     BECMG 1712/1714 24018KT 9999 SCT030 TX15/1712Z TN11/1703Z
       
FAUT 161800Z 15002KT CAVOK 14/11 Q1015
FAUP 161800Z 25005KT CAVOK 13/M10 Q1020 NOSIG
TAF FAUP 161600Z 1618/1718 23005KT CAVOK 
     BECMG 1619/1621 18010KT 
     BECMG 1702/1704 BKN015 
     PROB40 
     TEMPO 1703/1706 1200 BR OVC005 
     BECMG 1708/1710 SCT035 
     BECMG 1711/1713 CAVOK TX16/1713Z TN03/1703Z
       
FAWK 161800Z AUTO 26002KT //// // ////// ///// Q1025
FAWB 161800Z AUTO 21001KT //// // ////// ///// Q1021